• Join FlightAware (Why Join?)
  • Login
  • US Flag 
06:44AM EDT


 

Airport Tracker/Info


-or-


 

Live Flight TrackerFlight Track Log ✈ NKS562 ✈ 28-Apr-2013 ✈ KLAS - KDEN

Flight Track Log - Related Links

Times and Time Zones

All times are in EDT time to prevent confusion due to time zone crossing. See the NKS562 flight status page for this flight to view local times or setup timezone preferences in your user account.

Time Position Orientation Groundspeed Altitude Reporting Facility
EDT Latitude Longitude Course Direction KTS MPH feet Rate Location/Type
11:21AM 36.0760 -115.1780 270° West 165 190 3,300  Level FlightAware
11:22AM 36.0770 -115.2070 272° West 192 221 4,000 1,200 Climbing FlightAware
11:22AM 36.0780 -115.2450 272° West 236 272 4,500 1,800 Climbing FlightAware
11:23AM 36.0850 -115.2770 285° West 241 277 5,700 3,120 Climbing FlightAware
11:23AM 36.0990 -115.2880 328° Northwest 234 269 6,600 3,180 Climbing FlightAware
11:24AM 36.1320 -115.2960 349° North 243 280 8,100 2,820 Climbing FlightAware
11:24AM 36.1580 -115.2830 22° Northeast 256 295 9,200 2,700 Climbing FlightAware
11:24AM 36.1690 -115.2670 50° Northeast 257 296 9,900 3,180 Climbing FlightAware
11:25AM 36.1770 -115.2460 65° Northeast 258 297 10,800 2,280 Climbing FlightAware
11:25AM 36.1950 -115.1850 70° East 301 346 12,000 1,620 Climbing FlightAware
11:25AM 36.1960 -115.1600 87° East 319 367 12,300 1,500 Climbing FlightAware
11:26AM 36.1970 -115.0810 89° East 357 411 13,400 2,160 Climbing FlightAware
11:27AM 36.1980 -114.9880 89° East 365 420 15,400 2,460 Climbing FlightAware
11:28AM 36.1990 -114.9040 89° East 379 436 16,900 2,220 Climbing FlightAware
11:28AM 36.2000 -114.8150 89° East 390 449 18,400 2,280 Climbing FlightAware
11:29AM 36.2000 -114.7130 90° East 394 453 20,200 2,040 Climbing FlightAware
11:30AM 36.1980 -114.6130 91° East 408 470 21,500 1,800 Climbing FlightAware
11:30AM 36.1970 -114.5190 91° East 414 476 22,800 1,680 Climbing FlightAware
11:31AM 36.1960 -114.4220 91° East 424 488 23,800 1,680 Climbing FlightAware
11:32AM 36.1950 -114.3110 91° East 428 493 25,200 1,740 Climbing FlightAware
11:32AM 36.1940 -114.2640 91° East 432 497 25,700 1,440 Climbing FlightAware
11:33AM 36.2050 -114.1510 83° East 438 504 26,800 1,500 Climbing FlightAware
11:34AM 36.2180 -114.0390 82° East 442 509 28,000 1,440 Climbing FlightAware
11:34AM 36.2310 -113.9290 82° East 446 513 29,000 1,320 Climbing FlightAware
11:35AM 36.2430 -113.8260 82° East 451 519 29,900 1,260 Climbing FlightAware
11:36AM 36.2550 -113.7230 82° East 455 524 30,700 1,320 Climbing FlightAware
11:36AM 36.2670 -113.6220 82° East 450 518 31,700 1,620 Climbing FlightAware
11:37AM 36.2810 -113.5040 82° East 445 512 33,000 1,500 Climbing FlightAware
11:38AM 36.2920 -113.4020 82° East 442 509 33,900 1,200 Climbing FlightAware
11:38AM 36.3030 -113.3050 82° East 442 509 34,600 960 Climbing FlightAware
11:39AM 36.3260 -113.1980 75° East 443 510 35,300 960 Climbing FlightAware
11:40AM 36.3650 -113.1060 62° Northeast 444 511 36,000 1,080 Climbing FlightAware
11:41AM 36.4070 -113.0040 63° Northeast 440 506 36,900 660 Climbing FlightAware
11:41AM 36.4430 -112.9150 63° Northeast 440 506 37,000 60 Climbing FlightAware
11:42AM 36.4840 -112.8150 63° Northeast 440 506 37,000  Level FlightAware
11:43AM 36.5220 -112.7240 63° Northeast 442 509 37,000  Level FlightAware
11:43AM 36.5570 -112.6370 63° Northeast 443 510 37,000  Level FlightAware
11:44AM 36.6000 -112.5320 63° Northeast 444 511 37,000  Level FlightAware
11:45AM 36.6380 -112.4380 63° Northeast 445 512 37,000  Level FlightAware
11:45AM 36.6710 -112.3540 64° Northeast 446 513 37,000  Level FlightAware
11:46AM 36.7030 -112.2760 63° Northeast 446 513 37,000  Level FlightAware
11:47AM 36.7350 -112.1980 63° Northeast 446 513 37,000  Level FlightAware
11:48AM 36.7750 -112.1010 63° Northeast 446 513 37,000  Level FlightAware
11:48AM 36.8070 -112.0230 63° Northeast 446 513 37,000  Level FlightAware
11:49AM 36.8390 -111.9450 63° Northeast 446 513 37,000  Level FlightAware
11:50AM 36.8700 -111.8660 64° Northeast 446 513 37,000  Level FlightAware
11:50AM 36.9020 -111.7880 63° Northeast 446 513 37,000  Level FlightAware
11:51AM 36.9420 -111.6910 63° Northeast 446 513 37,000  Level FlightAware
11:52AM 36.9740 -111.6120 63° Northeast 446 513 37,000  Level FlightAware
11:52AM 37.0060 -111.5340 63° Northeast 446 513 37,000  Level FlightAware
11:53AM 37.0380 -111.4560 63° Northeast 446 513 37,000  Level FlightAware
11:54AM 37.0690 -111.3770 64° Northeast 446 513 37,000  Level FlightAware
11:54AM 37.1010 -111.2990 63° Northeast 446 513 37,000  Level FlightAware
11:55AM 37.1861 -111.0511 63° Northeast 444 511 37,000  Level Denver Center
11:56AM 37.2400 -110.9142 64° Northeast 441 507 37,000  Level Denver Center
11:57AM 37.2914 -110.7761 65° Northeast 439 505 37,000  Level Denver Center
11:58AM 37.3442 -110.6386 64° Northeast 439 505 37,000  Level Denver Center
11:59AM 37.3978 -110.5011 64° Northeast 439 505 37,000  Level Denver Center
12:00PM 37.4606 -110.3356 64° Northeast 439 505 37,000  Level Denver Center
12:01PM 37.5097 -110.2075 64° Northeast 439 505 37,000  Level Denver Center
12:02PM 37.5678 -110.0517 65° Northeast 440 506 37,000  Level Denver Center
12:03PM 37.6256 -109.8967 65° Northeast 437 503 37,000  Level Denver Center
12:04PM 37.6825 -109.7406 65° Northeast 439 505 37,000  Level Denver Center
12:05PM 37.7322 -109.6067 65° Northeast 439 505 37,000  Level Denver Center
12:06PM 37.7900 -109.4503 65° Northeast 440 506 37,000  Level Denver Center
12:07PM 37.8394 -109.3175 65° Northeast 435 501 37,000  Level Denver Center
12:09PM 37.8969 -109.1594 65° Northeast 441 507 37,000  Level Denver Center
12:10PM 37.9461 -109.0250 65° Northeast 439 505 37,000  Level Denver Center
12:11PM 38.0028 -108.8667 66° East 442 509 37,000  Level Denver Center
12:12PM 38.0511 -108.7328 65° Northeast 437 503 37,000  Level Denver Center
12:17PM 38.3390 -107.9470 65° Northeast 442 509 37,000  Level FlightAware
12:18PM 38.3790 -107.8580 60° Northeast 443 510 37,000  Level FlightAware
12:18PM 38.4100 -107.7880 61° Northeast 444 511 37,000  Level FlightAware
12:19PM 38.4490 -107.7000 60° Northeast 445 512 37,000  Level FlightAware
12:20PM 38.4890 -107.6080 61° Northeast 445 512 37,000  Level FlightAware
12:20PM 38.5290 -107.5170 61° Northeast 444 511 37,000  Level FlightAware
12:21PM 38.5750 -107.4140 60° Northeast 444 511 37,000  Level FlightAware
12:22PM 38.6139 -107.3240 61° Northeast 444 511 37,000  Level FlightAware ADS-B
12:22PM 38.6448 -107.2530 61° Northeast 445 512 37,000  Level FlightAware ADS-B
12:23PM 38.6779 -107.1770 61° Northeast 445 512 37,000  Level FlightAware ADS-B
12:23PM 38.7097 -107.1040 61° Northeast 444 511 37,000  Level FlightAware ADS-B
12:24PM 38.7400 -107.0340 61° Northeast 446 513 37,000  Level FlightAware ADS-B
12:24PM 38.7701 -106.9650 61° Northeast 447 514 37,000  Level FlightAware ADS-B
12:25PM 38.8004 -106.8940 61° Northeast 447 514 37,000  Level FlightAware ADS-B
12:25PM 38.8304 -106.8250 61° Northeast 448 516 37,000 -300 Level FlightAware ADS-B
12:26PM 38.8616 -106.7520 61° Northeast 448 516 36,700 -840 Descending FlightAware ADS-B
12:26PM 38.8915 -106.6830 61° Northeast 449 517 36,200 -1,020 Descending FlightAware ADS-B
12:27PM 38.9217 -106.6120 61° Northeast 451 519 35,700 -1,020 Descending FlightAware ADS-B
12:27PM 38.9516 -106.5410 62° Northeast 452 520 35,200 -1,320 Descending FlightAware ADS-B
12:28PM 38.9820 -106.4700 61° Northeast 455 524 34,400 -1,920 Descending FlightAware ADS-B
12:28PM 39.0121 -106.3980 62° Northeast 451 519 33,300 -2,280 Descending FlightAware ADS-B
12:29PM 39.0428 -106.3270 61° Northeast 447 514 32,100 -2,280 Descending FlightAware ADS-B
12:29PM 39.0726 -106.2570 61° Northeast 443 510 31,000 -2,220 Descending FlightAware ADS-B
12:30PM 39.1025 -106.1860 61° Northeast 438 504 29,900 -2,220 Descending FlightAware ADS-B
12:30PM 39.1365 -106.1050 62° Northeast 430 495 28,600 -2,100 Descending FlightAware ADS-B
12:31PM 39.1647 -106.0370 62° Northeast 425 489 27,600 -2,100 Descending FlightAware ADS-B
12:31PM 39.1925 -105.9710 61° Northeast 419 482 26,500 -2,100 Descending FlightAware ADS-B
12:32PM 39.2204 -105.9040 62° Northeast 421 484 25,500 -2,100 Descending FlightAware ADS-B
12:32PM 39.2485 -105.8370 62° Northeast 418 481 24,400 -2,100 Descending FlightAware ADS-B
12:33PM 39.2759 -105.7710 62° Northeast 410 472 23,400 -1,980 Descending FlightAware ADS-B
12:33PM 39.3029 -105.7060 62° Northeast 402 463 22,400 -2,100 Descending FlightAware ADS-B
12:34PM 39.3298 -105.6410 62° Northeast 395 455 21,300 -1,800 Descending FlightAware ADS-B
12:34PM 39.3555 -105.5780 62° Northeast 379 436 20,600 -1,140 Descending FlightAware ADS-B
12:35PM 39.3791 -105.5210 62° Northeast 354 407 20,200 -660 Descending FlightAware ADS-B
12:35PM 39.3939 -105.4860 61° Northeast 347 399 20,100 -960 Descending FlightAware ADS-B
12:36PM 39.4229 -105.4290 57° Northeast 382 440 19,400 -1,320 Descending FlightAware ADS-B
12:36PM 39.4534 -105.3710 56° Northeast 386 444 18,800 -1,140 Descending FlightAware ADS-B
12:37PM 39.4833 -105.3150 55° Northeast 374 430 18,300 -900 Descending FlightAware ADS-B
12:37PM 39.5149 -105.2540 56° Northeast 340 391 17,900 -1,260 Descending FlightAware ADS-B
12:38PM 39.5404 -105.2060 55° Northeast 321 369 17,000 -1,500 Descending FlightAware ADS-B
12:38PM 39.5663 -105.1570 56° Northeast 320 368 16,400 -1,080 Descending FlightAware ADS-B
12:39PM 39.5914 -105.1090 56° Northeast 318 366 15,900 -1,020 Descending FlightAware ADS-B
12:39PM 39.6165 -105.0610 56° Northeast 306 352 15,400 -780 Descending FlightAware ADS-B
12:40PM 39.6415 -105.0130 56° Northeast 285 328 15,100 -960 Descending FlightAware ADS-B
12:40PM 39.6638 -104.9690 57° Northeast 283 326 14,400 -1,200 Descending FlightAware ADS-B
12:41PM 39.6862 -104.9260 56° Northeast 283 326 13,900 -900 Descending FlightAware ADS-B
12:42PM 39.7087 -104.8820 56° Northeast 278 320 13,500 -720 Descending FlightAware ADS-B
12:42PM 39.7220 -104.8570 55° Northeast 265 305 13,300 -540 Descending FlightAware ADS-B
12:42PM 39.7261 -104.8510 48° Northeast 262 302 13,300 -720 Level FlightAware ADS-B
12:42PM 39.7309 -104.8470 33° Northeast 259 298 13,200 -1,140 Descending FlightAware ADS-B
12:42PM 39.7424 -104.8410 22° Northeast 254 292 13,000 -1,140 Descending FlightAware ADS-B
12:42PM 39.7485 -104.8410 360° North 253 291 12,900 -1,380 Descending FlightAware ADS-B
12:42PM 39.7530 -104.8410 360° North 253 291 12,800 -720 Descending FlightAware ADS-B
12:43PM 39.7796 -104.8420 358° North 248 285 12,600 -840 Descending FlightAware ADS-B
12:43PM 39.8120 -104.8410 North 248 285 12,100 -1,080 Descending FlightAware
12:43PM 39.8203 -104.8410 360° North 250 288 12,000 -840 Descending FlightAware ADS-B
12:44PM 39.8630 -104.8400 North 253 291 11,500 -720 Descending FlightAware
12:44PM 39.8899 -104.8390 North 252 290 11,300 -720 Descending FlightAware ADS-B
12:45PM 39.9246 -104.8390 360° North 249 287 10,900 -720 Descending FlightAware ADS-B
12:45PM 39.9587 -104.8390 360° North 245 282 10,600 -660 Descending FlightAware ADS-B
12:46PM 39.9875 -104.8390 360° North 242 278 10,300 -1,020 Descending FlightAware ADS-B
12:46PM 40.0058 -104.8390 360° North 243 280 9,900 -1,500 Descending FlightAware ADS-B
12:46PM 40.0323 -104.8400 358° North 244 281 9,300 -1,440 Descending FlightAware ADS-B
12:47PM 40.0441 -104.8390 North 242 278 9,100 -1,200 Descending FlightAware ADS-B
12:47PM 40.0497 -104.8380 North 240 276 9,000 -1,140 Descending FlightAware ADS-B
12:47PM 40.0553 -104.8350 22° Northeast 238 274 8,900 -960 Descending FlightAware ADS-B
12:47PM 40.0616 -104.8290 36° Northeast 236 272 8,800 -600 Descending FlightAware ADS-B
12:47PM 40.0638 -104.8260 46° Northeast 234 269 8,800 -900 Level FlightAware ADS-B
12:47PM 40.0664 -104.8210 56° Northeast 234 269 8,700 -780 Descending FlightAware ADS-B
12:47PM 40.0683 -104.8160 64° Northeast 232 267 8,700 -900 Level FlightAware ADS-B
12:47PM 40.0694 -104.8120 70° East 232 267 8,600 -900 Descending FlightAware ADS-B
12:47PM 40.0701 -104.8070 80° East 230 265 8,600 -780 Level FlightAware ADS-B
12:47PM 40.0706 -104.8000 85° East 229 264 8,500 -960 Descending FlightAware ADS-B
12:47PM 40.0709 -104.7880 88° East 227 261 8,400 -720 Descending FlightAware ADS-B
12:48PM 40.0708 -104.7780 91° East 226 260 8,300 -600 Descending FlightAware ADS-B
12:48PM 40.0705 -104.7740 96° East 226 260 8,300 -1,020 Level FlightAware ADS-B
12:48PM 40.0699 -104.7700 101° East 226 260 8,200 -900 Descending FlightAware ADS-B
12:48PM 40.0684 -104.7640 108° East 225 259 8,200 -780 Level FlightAware ADS-B
12:48PM 40.0665 -104.7600 122° Southeast 224 258 8,100 -780 Descending FlightAware ADS-B
12:48PM 40.0643 -104.7560 126° Southeast 221 254 8,100  Level FlightAware ADS-B
12:48PM 40.0620 -104.7530 135° Southeast 219 252 8,100 -1,020 Level FlightAware ADS-B
12:48PM 40.0594 -104.7500 139° Southeast 218 251 8,000 -900 Descending FlightAware ADS-B
12:48PM 40.0566 -104.7480 151° Southeast 214 246 8,000  Level FlightAware ADS-B
12:48PM 40.0521 -104.7450 153° Southeast 210 242 8,000 -480 Level FlightAware ADS-B
12:48PM 40.0454 -104.7400 150° Southeast 205 236 7,900 -840 Descending FlightAware ADS-B
12:48PM 40.0333 -104.7330 156° South 199 229 7,700 -960 Descending FlightAware ADS-B
12:49PM 40.0232 -104.7260 152° Southeast 199 229 7,500 -1,320 Descending FlightAware ADS-B
12:49PM 40.0174 -104.7220 152° Southeast 198 228 7,300 -1,320 Descending FlightAware ADS-B
12:49PM 40.0047 -104.7140 154° Southeast 198 228 7,000 -600 Descending FlightAware ADS-B
12:49PM 39.9926 -104.7060 153° Southeast 191 220 7,000 -240 Level FlightAware ADS-B
12:49PM 39.9839 -104.7010 156° South 199 229 6,900 -480 Descending FlightAware ADS-B
12:49PM 39.9814 -104.6990 148° Southeast 199 229 6,900  Level FlightAware ADS-B
12:50PM 39.9779 -104.6970 156° South 199 229 6,900 -780 Level FlightAware ADS-B
12:50PM 39.9739 -104.6960 169° South 199 229 6,800 -780 Descending FlightAware ADS-B
12:50PM 39.9699 -104.6960 180° South 200 230 6,800 -1,200 Level FlightAware ADS-B
12:50PM 39.9603 -104.6960 180° South 196 226 6,500 -1,320 Descending FlightAware ADS-B
12:50PM 39.9531 -104.6960 180° South 189 217 6,400 -660 Descending FlightAware ADS-B
12:50PM 39.9437 -104.6960 180° South 173 199 6,300 -1,080 Descending FlightAware ADS-B
12:50PM 39.9345 -104.6960 180° South 164 189 6,000 -1,140 Descending FlightAware ADS-B
12:51PM 39.9276 -104.6960 180° South 154 177 5,900 -720 Descending FlightAware ADS-B
12:51PM 39.9226 -104.6960 180° South 157 181 5,800 -840 Descending FlightAware ADS-B
12:51PM 39.9164 -104.6960 180° South 151 174 5,700 -900 Descending FlightAware ADS-B
12:51PM 39.9084 -104.6960 180° South 152 175 5,500 -720 Descending FlightAware ADS-B
12:51PM 39.9040 -104.6960 180° South 152 175 5,500 -660 Level FlightAware ADS-B
12:51PM 39.8887 -104.6960 180° South 150 173 5,200 -840 Descending FlightAware ADS-B